Flight Briefing for CPX109

Departure Arrival
Daniel K Inouye International Airport (PHNL)
Click to view FAA NOTAMS
Seattle-Tacoma International Airport (KSEA)
Click to view FAA NOTAMS
Departure Time Arrival Time
N/A N/A
Aircraft Distance
MD-11SF 2329nm
Departure METAR Arrival METAR
PHNL 192253Z 08009KT 10SM -RA FEW022 FEW040 OVC100 21/18 A2990 RMK AO2 PRESFR SLP126 P0001 T02110183 KSEA 192316Z 20011KT 10SM -RA OVC013 06/03 A3001 RMK AO2 P0000 T00560033
Suggested Route
MKK4 APACK ZOULU ZEMOM A331 ZINNO A331 SEDAR LATAY HAWKZ7


View recent IFR Routes data
Notes



Charts and Procedures

Charts for PHNL
No chart available
Charts for KSEA
No chart available

Ventusky Weather




{"cat":null,"equip":null,"transponder":null,"pbn":"PBN\/","maxpax":null,"oew":"0.0","mzfw":"0.0","mtow":"0.0","mlw":"0.0","maxfuel":"0.0"} DEVELOPMENTAL TEST USE ONLY